Home > Products > Valid Products > TAF

000
FTUS43 KUNR 080520
TAFGCC
TAF
KGCC 080520Z 0806/0906 32015KT P6SM SCT200
     FM081500 29011KT P6SM BKN100=



000
FTUS43 KUNR 080520
TAFRAP
TAF
KRAP 080520Z 0806/0906 33028G38KT P6SM SCT200
     FM080800 33020G30KT P6SM SCT200
     FM081700 34017KT P6SM BKN100=



000
FTUS43 KUNR 072320
TAFRAP
TAF
KRAP 072320Z 0800/0824 33035G50KT P6SM SCT080
     FM080100 32030G40KT P6SM SCT200
     FM080700 32020G30KT P6SM SCT200=



000
FTUS43 KUNR 072320
TAFGCC
TAF
KGCC 072320Z 0800/0824 32024G34KT P6SM SCT150
     FM080100 30020KT P6SM SCT200
     FM081500 29011KT P6SM BKN100=



000
FTUS43 KUNR 071740
TAFRAP
TAF
KRAP 071740Z 0718/0818 32044G58KT P6SM SCT120
     FM080100 32030G40KT P6SM SCT200
     FM080700 32020G30KT P6SM SCT200=



000
FTUS43 KUNR 071740
TAFGCC
TAF
KGCC 071740Z 0718/0818 30028G42KT P6SM SCT100
     FM080100 30020KT P6SM SCT200
     FM081500 29011KT P6SM BKN100=



000
FTUS43 KUNR 071740
TAFGCC
TAF
KGCC 071740Z 0718/0818 30028G42KT P6SM SCT100
     FM080100 30020KT P6SM SCT200
     FM081500 29011KT P6SM BKN100=



000
FTUS43 KUNR 071740
TAFRAP
TAF
KRAP 071740Z 0718/0818 32044G58KT P6SM SCT120
     FM080100 32030G40KT P6SM SCT200
     FM080700 32020G30KT P6SM SCT200=



000
FTUS43 KUNR 071120
TAFGCC
TAF
KGCC 071120Z 0712/0812 31024G34KT P6SM BKN080
     FM071600 30028G42KT P6SM SCT100
     FM080100 29016KT P6SM SCT200=



000
FTUS43 KUNR 071120
TAFRAP
TAF
KRAP 071120Z 0712/0812 32026G40KT P6SM SCT120
     FM071600 32044G58KT P6SM SCT120
     FM080100 32020G30KT P6SM SCT200=



000
FTUS43 KUNR 070520
TAFGCC
TAF
KGCC 070520Z 0706/0806 31015KT P6SM BKN080
     FM071500 30025G40KT P6SM FEW150=



000
FTUS43 KUNR 070520
TAFRAP
TAF
KRAP 070520Z 0706/0806 32022G32KT P6SM BKN150
     FM071500 32040G55KT P6SM FEW150=



000
FTUS43 KUNR 062324
TAFRAP
TAF
KRAP 062324Z 0700/0724 34035G50KT P6SM BKN100
     FM070200 33020G30KT P6SM BKN100
     FM071500 32040G55KT P6SM FEW150=



000
FTUS43 KUNR 062324
TAFGCC
TAF
KGCC 062324Z 0700/0724 30018KT P6SM BKN150
     FM071500 30025G40KT P6SM FEW150=



000
FTUS43 KUNR 062324
TAFRAP
TAF
KRAP 062324Z 0700/0724 34035G50KT P6SM BKN100
     FM070200 33020G30KT P6SM BKN100
     FM071500 32040G55KT P6SM FEW150=



000
FTUS43 KUNR 062324
TAFGCC
TAF
KGCC 062324Z 0700/0724 30018KT P6SM BKN150
     FM071500 30025G40KT P6SM FEW150=



000
FTUS43 KUNR 062256 AAB
TAFRAP
TAF AMD
KRAP 062256Z 0623/0718 34020KT P6SM BKN150
     FM070000 33035G50KT P6SM BKN100
     FM070200 33020G30KT P6SM BKN100
     FM071500 32040G55KT P6SM FEW150=



000
FTUS43 KUNR 062256 AAB
TAFRAP
TAF AMD
KRAP 062256Z 0623/0718 34020KT P6SM BKN150
     FM070000 33035G50KT P6SM BKN100
     FM070200 33020G30KT P6SM BKN100
     FM071500 32040G55KT P6SM FEW150=



000
FTUS43 KUNR 062147 AAA
TAFRAP
TAF AMD
KRAP 062147Z 0622/0718 VRB06KT P6SM BKN150
     FM070100 33020G30KT P6SM BKN100
     FM071500 32040G55KT P6SM FEW150=



000
FTUS43 KUNR 061721
TAFRAP
TAF
KRAP 061721Z 0618/0718 VRB06KT P6SM BKN150
     FM062300 33025G38KT P6SM BKN100
     FM071500 32040G55KT P6SM FEW150=



000
FTUS43 KUNR 061721
TAFGCC
TAF
KGCC 061721Z 0618/0718 22020G30KT P6SM BKN100
     FM062200 29018KT P6SM BKN100
     FM071500 30025G40KT P6SM FEW150=



000
FTUS43 KUNR 061721
TAFRAP
TAF
KRAP 061721Z 0618/0718 VRB06KT P6SM BKN150
     FM062300 33025G38KT P6SM BKN100
     FM071500 32040G55KT P6SM FEW150=



000
FTUS43 KUNR 061721
TAFGCC
TAF
KGCC 061721Z 0618/0718 22020G30KT P6SM BKN100
     FM062200 29018KT P6SM BKN100
     FM071500 30025G40KT P6SM FEW150=



000
FTUS43 KUNR 061127
TAFGCC
TAF
KGCC 061127Z 0612/0712 23017KT P6SM BKN200
     FM062200 30020G30KT P6SM BKN100=



000
FTUS43 KUNR 061127
TAFRAP
TAF
KRAP 061127Z 0612/0712 VRB05KT P6SM SCT250
     FM061600 32014KT P6SM BKN150
     FM070100 33025G38KT P6SM BKN100=



000
FTUS43 KUNR 061127
TAFGCC
TAF
KGCC 061127Z 0612/0712 23017KT P6SM BKN200
     FM062200 30020G30KT P6SM BKN100=



000
FTUS43 KUNR 061127
TAFRAP
TAF
KRAP 061127Z 0612/0712 VRB05KT P6SM SCT250
     FM061600 32014KT P6SM BKN150
     FM070100 33025G38KT P6SM BKN100=



000
FTUS43 KUNR 060520
TAFRAP
TAF
KRAP 060520Z 0606/0706 VRB05KT P6SM SCT250
     FM061600 33018G30KT P6SM BKN150
     FM070100 33028G40KT P6SM BKN100=



000
FTUS43 KUNR 060520
TAFGCC
TAF
KGCC 060520Z 0606/0706 22013KT P6SM BKN250
     FM061000 27017G27KT P6SM BKN200
     FM062200 31020G30KT P6SM BKN100=



000
FTUS43 KUNR 052323
TAFRAP
TAF
KRAP 052323Z 0600/0624 35010KT P6SM SCT250
     FM061800 33020G30KT P6SM BKN150=



000
FTUS43 KUNR 052323
TAFGCC
TAF
KGCC 052323Z 0600/0624 22012KT P6SM BKN250
     FM061400 27017G27KT P6SM BKN200=



000
FTUS43 KUNR 052323
TAFRAP
TAF
KRAP 052323Z 0600/0624 35010KT P6SM SCT250
     FM061800 33020G30KT P6SM BKN150=



000
FTUS43 KUNR 052323
TAFGCC
TAF
KGCC 052323Z 0600/0624 22012KT P6SM BKN250
     FM061400 27017G27KT P6SM BKN200=



000
FTUS43 KUNR 051720
TAFRAP
TAF
KRAP 051720Z 0518/0618 33017KT P6SM SCT200
     FM052300 30010KT P6SM SCT250=



000
FTUS43 KUNR 051720
TAFGCC
TAF
KGCC 051720Z 0518/0618 29012KT P6SM SCT200
     FM052300 24012KT P6SM SCT250
     FM061100 22017G27KT P6SM BKN200=



000
FTUS43 KUNR 051720
TAFGCC
TAF
KGCC 051720Z 0518/0618 29012KT P6SM SCT200
     FM052300 24012KT P6SM SCT250
     FM061100 22017G27KT P6SM BKN200=



000
FTUS43 KUNR 051720
TAFRAP
TAF
KRAP 051720Z 0518/0618 33017KT P6SM SCT200
     FM052300 30010KT P6SM SCT250=



000
FTUS43 KUNR 051130
TAFGCC
TAF
KGCC 051130Z 0512/0612 30017G27KT P6SM SCT020 BKN060
     FM051600 29014KT P6SM SCT200
     FM060300 22017KT P6SM SCT200=



000
FTUS43 KUNR 051130
TAFRAP
TAF
KRAP 051130Z 0512/0612 33017G27KT P6SM BKN050
     FM052200 33008KT P6SM SCT250=



000
FTUS43 KUNR 051130
TAFRAP
TAF
KRAP 051130Z 0512/0612 33017G27KT P6SM BKN050
     FM052200 33008KT P6SM SCT250=



000
FTUS43 KUNR 051130
TAFGCC
TAF
KGCC 051130Z 0512/0612 30017G27KT P6SM SCT020 BKN060
     FM051600 29014KT P6SM SCT200
     FM060300 22017KT P6SM SCT200=



000
FTUS43 KUNR 051019 AAA
TAFGCC
TAF AMD
KGCC 051019Z 0510/0606 31018G28KT P6SM SCT020 BKN060
      TEMPO 0510/0512 5SM -SHSN BKN015
     FM051600 27009KT P6SM SCT150=



    US Dept of Commerce
    National Oceanic and Atmospheric Administration
    National Weather Service
    1325 East West Highway
    Silver Spring, MD 20910
    Page Author: NWS Internet Services Team
Disclaimer
Information Quality
Credits
Glossary
Privacy Policy
Freedom of Information Act (FOIA)
About Us
Career Opportunities